Time,TemperatureF,DewpointF,PressureIn,WindDirection,WindDirectionDegrees,WindSpeedMPH,WindSpeedGustMPH,Humidity,HourlyPrecipIn,Conditions,Clouds,dailyrainin,SoftwareType,DateUTC
2013-03-26 00:09:00,25.3,16.2,30.45,NNW,337,0.0,0.0,68,0.00,,,0.00,WUHU21636XXSP,2013-03-26 05:09:00,
2013-03-26 00:19:00,25.3,16.2,30.45,NNW,337,0.0,0.0,67,0.00,,,0.00,WUHU21636XXSP,2013-03-26 05:19:00,
2013-03-26 00:29:00,25.2,15.6,30.45,NNW,337,0.0,0.0,68,0.00,,,0.00,WUHU21636XXSP,2013-03-26 05:29:00,
2013-03-26 00:39:00,25.0,15.8,30.44,NNW,337,0.0,0.0,68,0.00,,,0.00,WUHU21636XXSP,2013-03-26 05:39:00,
2013-03-26 00:49:00,24.4,15.6,30.45,NNW,337,0.0,0.0,69,0.00,,,0.00,WUHU21636XXSP,2013-03-26 05:49:00,
2013-03-26 00:59:00,24.1,15.3,30.45,NNW,337,0.0,0.0,69,0.00,,,0.00,WUHU21636XXSP,2013-03-26 05:59:00,
2013-03-26 01:09:00,24.1,15.3,30.44,NNW,337,0.0,0.0,69,0.00,,,0.00,WUHU21636XXSP,2013-03-26 06:09:00,
2013-03-26 01:19:00,24.1,15.3,30.44,NNW,337,0.0,0.0,69,0.00,,,0.00,WUHU21636XXSP,2013-03-26 06:19:00,
2013-03-26 01:29:00,23.9,15.1,30.44,NNW,337,0.0,0.0,69,0.00,,,0.00,WUHU21636XXSP,2013-03-26 06:29:00,
2013-03-26 01:39:00,23.7,14.9,30.44,NNW,337,0.0,0.0,69,0.00,,,0.00,WUHU21636XXSP,2013-03-26 06:39:00,
2013-03-26 01:49:00,23.7,14.9,30.43,NNW,337,0.0,0.0,69,0.00,,,0.00,WUHU21636XXSP,2013-03-26 06:49:00,
2013-03-26 01:59:00,23.2,14.4,30.43,NNW,337,0.0,0.0,69,0.00,,,0.00,WUHU21636XXSP,2013-03-26 06:59:00,
2013-03-26 02:09:00,22.8,14.2,30.43,NNW,337,0.0,0.0,69,0.00,,,0.00,WUHU21636XXSP,2013-03-26 07:09:00,
2013-03-26 02:19:00,21.7,13.5,30.43,NNW,337,0.0,0.0,70,0.00,,,0.00,WUHU21636XXSP,2013-03-26 07:19:00,
2013-03-26 02:29:00,20.5,12.7,30.43,NW,315,0.0,0.0,72,0.00,,,0.00,WUHU21636XXSP,2013-03-26 07:29:00,
2013-03-26 02:39:00,20.1,12.7,30.43,NW,315,0.0,0.0,73,0.00,,,0.00,WUHU21636XXSP,2013-03-26 07:39:00,
2013-03-26 02:49:00,20.1,12.7,30.43,NW,315,0.0,0.0,73,0.00,,,0.00,WUHU21636XXSP,2013-03-26 07:49:00,
2013-03-26 02:59:00,20.1,12.7,30.42,NW,315,0.0,0.0,73,0.00,,,0.00,WUHU21636XXSP,2013-03-26 07:59:00,
2013-03-26 03:09:00,19.6,12.4,30.42,NW,315,0.0,0.0,73,0.00,,,0.00,WUHU21636XXSP,2013-03-26 08:09:00,
2013-03-26 03:19:00,19.8,12.4,30.42,NW,315,0.0,0.0,74,0.00,,,0.00,WUHU21636XXSP,2013-03-26 08:19:00,
2013-03-26 03:29:00,19.6,12.4,30.42,NW,315,0.0,0.0,74,0.00,,,0.00,WUHU21636XXSP,2013-03-26 08:29:00,
2013-03-26 03:39:00,19.8,12.6,30.42,NW,315,0.0,0.0,74,0.00,,,0.00,WUHU21636XXSP,2013-03-26 08:39:00,
2013-03-26 03:49:00,19.2,12.0,30.41,NW,315,0.0,0.0,74,0.00,,,0.00,WUHU21636XXSP,2013-03-26 08:49:00,
2013-03-26 03:59:00,19.2,12.0,30.41,NW,315,0.0,0.0,74,0.00,,,0.00,WUHU21636XXSP,2013-03-26 08:59:00,
2013-03-26 04:09:00,19.2,12.0,30.41,NW,315,0.0,0.0,74,0.00,,,0.00,WUHU21636XXSP,2013-03-26 09:09:00,
2013-03-26 04:19:00,19.2,12.0,30.41,NW,315,0.0,0.0,73,0.00,,,0.00,WUHU21636XXSP,2013-03-26 09:19:00,
2013-03-26 04:29:00,18.7,11.7,30.41,NW,315,0.0,0.0,74,0.00,,,0.00,WUHU21636XXSP,2013-03-26 09:29:00,
2013-03-26 04:39:00,18.7,11.7,30.40,NW,315,0.0,0.0,74,0.00,,,0.00,WUHU21636XXSP,2013-03-26 09:39:00,
2013-03-26 04:49:00,18.3,11.3,30.40,NW,315,0.0,0.0,74,0.00,,,0.00,WUHU21636XXSP,2013-03-26 09:49:00,
2013-03-26 04:59:00,17.8,10.8,30.40,NW,315,0.0,0.0,74,0.00,,,0.00,WUHU21636XXSP,2013-03-26 09:59:00,
2013-03-26 05:10:00,17.4,10.8,30.40,NW,315,0.0,0.0,75,0.00,,,0.00,WUHU21636XXSP,2013-03-26 10:10:00,
2013-03-26 05:20:00,17.2,10.2,30.40,NW,315,0.0,0.0,74,0.00,,,0.00,WUHU21636XXSP,2013-03-26 10:20:00,
2013-03-26 05:30:00,16.7,10.0,30.40,NW,315,0.0,0.0,75,0.00,,,0.00,WUHU21636XXSP,2013-03-26 10:30:00,
2013-03-26 05:40:00,16.0,9.7,30.40,West,270,0.0,1.1,76,0.00,,,0.00,WUHU21636XXSP,2013-03-26 10:40:00,
2013-03-26 05:50:00,16.0,9.7,30.40,West,270,0.0,0.0,76,0.00,,,0.00,WUHU21636XXSP,2013-03-26 10:50:00,
2013-03-26 06:00:00,16.2,9.5,30.40,West,270,0.0,0.0,75,0.00,,,0.00,WUHU21636XXSP,2013-03-26 11:00:00,
2013-03-26 06:10:00,16.2,9.5,30.40,West,270,0.0,0.0,75,0.00,,,0.00,WUHU21636XXSP,2013-03-26 11:10:00,
2013-03-26 06:20:00,15.6,9.0,30.39,West,270,0.0,0.0,75,0.00,,,0.00,WUHU21636XXSP,2013-03-26 11:20:00,
2013-03-26 06:30:00,15.6,9.0,30.39,West,270,0.0,0.0,75,0.00,,,0.00,WUHU21636XXSP,2013-03-26 11:30:00,
2013-03-26 06:40:00,15.4,8.8,30.39,West,270,0.0,0.0,75,0.00,,,0.00,WUHU21636XXSP,2013-03-26 11:40:00,
2013-03-26 06:50:00,14.9,8.2,30.39,West,270,0.0,0.0,75,0.00,,,0.00,WUHU21636XXSP,2013-03-26 11:50:00,
2013-03-26 07:00:00,15.1,8.4,30.39,West,270,0.0,0.0,75,0.00,,,0.00,WUHU21636XXSP,2013-03-26 12:00:00,
2013-03-26 07:10:00,14.7,8.1,30.39,West,270,0.0,0.0,75,0.00,,,0.00,WUHU21636XXSP,2013-03-26 12:10:00,
2013-03-26 07:20:00,14.9,8.2,30.39,West,270,0.0,0.0,75,0.00,,,0.00,WUHU21636XXSP,2013-03-26 12:20:00,
2013-03-26 07:30:00,15.1,8.4,30.39,West,270,0.0,0.0,75,0.00,,,0.00,WUHU21636XXSP,2013-03-26 12:30:00,
2013-03-26 07:40:00,15.4,8.8,30.39,West,270,0.0,0.0,74,0.00,,,0.00,WUHU21636XXSP,2013-03-26 12:40:00,
2013-03-26 07:50:00,14.4,7.2,30.39,WSW,247,0.0,0.0,73,0.00,,,0.00,WUHU21636XXSP,2013-03-26 12:50:00,
2013-03-26 08:00:00,13.3,6.8,30.39,WSW,247,1.3,1.3,75,0.00,,,0.00,WUHU21636XXSP,2013-03-26 13:00:00,
2013-03-26 08:10:00,13.1,6.6,30.39,WSW,247,1.1,1.3,76,0.00,,,0.00,WUHU21636XXSP,2013-03-26 13:10:00,
2013-03-26 08:20:00,12.7,6.4,30.40,WSW,247,0.6,1.1,76,0.00,,,0.00,WUHU21636XXSP,2013-03-26 13:20:00,
2013-03-26 08:30:00,12.9,7.0,30.39,WSW,247,0.0,0.6,76,0.00,,,0.00,WUHU21636XXSP,2013-03-26 13:30:00,
2013-03-26 08:40:00,13.5,7.2,30.39,WSW,247,0.0,0.0,76,0.00,,,0.00,WUHU21636XXSP,2013-03-26 13:40:00,
2013-03-26 08:50:00,14.4,8.1,30.39,WSW,247,0.0,0.0,76,0.00,,,0.00,WUHU21636XXSP,2013-03-26 13:50:00,
2013-03-26 09:00:00,14.7,8.1,30.39,WSW,247,0.0,0.0,76,0.00,,,0.00,WUHU21636XXSP,2013-03-26 14:00:00,
2013-03-26 09:10:00,15.1,8.8,30.39,WSW,247,0.0,0.0,76,0.00,,,0.00,WUHU21636XXSP,2013-03-26 14:10:00,
2013-03-26 09:20:00,15.6,9.3,30.39,WSW,247,0.0,0.0,76,0.00,,,0.00,WUHU21636XXSP,2013-03-26 14:20:00,
2013-03-26 09:30:00,16.0,9.3,30.39,WSW,247,0.4,0.4,75,0.00,,,0.00,WUHU21636XXSP,2013-03-26 14:30:00,
2013-03-26 09:40:00,16.5,10.0,30.38,WSW,247,0.0,1.5,76,0.00,,,0.00,WUHU21636XXSP,2013-03-26 14:40:00,
2013-03-26 09:50:00,17.2,10.6,30.39,SW,225,0.0,0.4,75,0.00,,,0.00,WUHU21636XXSP,2013-03-26 14:50:00,
2013-03-26 10:00:00,18.1,11.1,30.38,SW,225,0.4,0.4,74,0.00,,,0.00,WUHU21636XXSP,2013-03-26 15:00:00,
2013-03-26 10:10:00,18.7,11.3,30.37,SW,225,0.0,0.4,73,0.00,,,0.00,WUHU21636XXSP,2013-03-26 15:10:00,
2013-03-26 10:20:00,19.2,11.5,30.38,SW,225,0.0,1.7,72,0.00,,,0.00,WUHU21636XXSP,2013-03-26 15:20:00,
2013-03-26 10:30:00,20.1,12.0,30.37,SW,225,0.0,0.0,71,0.00,,,0.00,WUHU21636XXSP,2013-03-26 15:30:00,
2013-03-26 10:40:00,20.8,12.7,30.37,SW,225,0.0,0.0,71,0.00,,,0.00,WUHU21636XXSP,2013-03-26 15:40:00,
2013-03-26 10:50:00,22.6,14.9,30.37,WSW,247,0.0,0.0,72,0.00,,,0.00,WUHU21636XXSP,2013-03-26 15:50:00,
2013-03-26 11:00:00,23.5,15.1,30.37,WSW,247,0.0,2.2,70,0.00,,,0.00,WUHU21636XXSP,2013-03-26 16:00:00,
2013-03-26 11:10:00,24.4,15.6,30.37,SW,225,0.0,0.0,70,0.00,,,0.00,WUHU21636XXSP,2013-03-26 16:10:00,
2013-03-26 11:20:00,25.9,16.7,30.36,SSW,202,0.0,4.4,68,0.00,,,0.00,WUHU21636XXSP,2013-03-26 16:20:00,
2013-03-26 11:30:00,26.8,17.6,30.36,SW,225,3.5,3.5,68,0.00,,,0.00,WUHU21636XXSP,2013-03-26 16:30:00,
2013-03-26 11:40:00,28.0,18.1,30.36,South,180,4.4,4.4,66,0.00,,,0.00,WUHU21636XXSP,2013-03-26 16:40:00,
2013-03-26 11:50:00,29.3,18.9,30.36,SSW,202,0.0,4.4,65,0.00,,,0.00,WUHU21636XXSP,2013-03-26 16:50:00,
2013-03-26 12:00:00,30.4,19.2,30.35,South,180,0.4,4.9,63,0.00,,,0.00,WUHU21636XXSP,2013-03-26 17:00:00,
2013-03-26 12:10:00,31.5,19.6,30.34,South,180,4.2,8.7,61,0.00,,,0.00,WUHU21636XXSP,2013-03-26 17:10:00,
2013-03-26 12:20:00,32.5,19.2,30.33,South,180,7.8,8.9,58,0.00,,,0.00,WUHU21636XXSP,2013-03-26 17:20:00,
2013-03-26 12:30:00,33.4,20.5,30.34,SSW,202,5.5,8.2,59,0.00,,,0.00,WUHU21636XXSP,2013-03-26 17:30:00,
2013-03-26 12:40:00,34.2,19.0,30.33,South,180,5.8,11.6,54,0.00,,,0.00,WUHU21636XXSP,2013-03-26 17:40:00,
2013-03-26 12:50:00,34.5,19.4,30.32,South,180,10.0,17.2,54,0.00,,,0.00,WUHU21636XXSP,2013-03-26 17:50:00,
2013-03-26 13:00:00,35.2,20.1,30.31,SSW,202,12.5,17.4,54,0.00,,,0.00,WUHU21636XXSP,2013-03-26 18:00:00,
2013-03-26 13:10:00,36.0,20.5,30.31,South,180,6.7,17.6,53,0.00,,,0.00,WUHU21636XXSP,2013-03-26 18:10:00,
2013-03-26 13:20:00,37.0,22.6,30.30,SW,225,9.3,15.2,56,0.00,,,0.00,WUHU21636XXSP,2013-03-26 18:20:00,
2013-03-26 13:30:00,38.3,23.4,30.30,SSW,202,6.0,17.4,55,0.00,,,0.00,WUHU21636XXSP,2013-03-26 18:30:00,
2013-03-26 13:40:00,39.0,22.6,30.29,SSE,157,6.2,22.5,52,0.00,,,0.00,WUHU21636XXSP,2013-03-26 18:40:00,
2013-03-26 13:50:00,39.0,22.3,30.29,SW,225,11.4,21.0,51,0.00,,,0.00,WUHU21636XXSP,2013-03-26 18:50:00,
2013-03-26 14:00:00,39.6,22.3,30.30,SSW,202,11.4,21.2,50,0.00,,,0.00,WUHU21636XXSP,2013-03-26 19:00:00,
2013-03-26 14:10:00,39.7,23.7,30.29,SSW,202,8.7,21.0,53,0.00,,,0.00,WUHU21636XXSP,2013-03-26 19:10:00,
2013-03-26 14:20:00,40.6,24.3,30.29,South,180,9.3,17.8,52,0.00,,,0.00,WUHU21636XXSP,2013-03-26 19:20:00,
2013-03-26 14:30:00,41.7,26.1,30.29,SSW,202,8.7,19.0,54,0.00,,,0.00,WUHU21636XXSP,2013-03-26 19:30:00,
2013-03-26 14:40:00,42.3,25.7,30.29,South,180,14.3,25.5,52,0.00,,,0.00,WUHU21636XXSP,2013-03-26 19:40:00,
2013-03-26 14:50:00,42.6,25.7,30.28,SW,225,10.9,20.8,51,0.00,,,0.00,WUHU21636XXSP,2013-03-26 19:50:00,
2013-03-26 15:00:00,43.2,27.1,30.27,South,180,8.7,21.2,53,0.00,,,0.00,WUHU21636XXSP,2013-03-26 20:00:00,
2013-03-26 15:10:00,44.2,27.7,30.27,SSE,157,6.2,20.5,52,0.00,,,0.00,WUHU21636XXSP,2013-03-26 20:10:00,
2013-03-26 15:20:00,45.0,26.8,30.26,SSE,157,10.9,21.9,49,0.00,,,0.00,WUHU21636XXSP,2013-03-26 20:20:00,
2013-03-26 15:30:00,45.3,26.1,30.26,SW,225,12.3,23.7,47,0.00,,,0.00,WUHU21636XXSP,2013-03-26 20:30:00,
2013-03-26 15:40:00,46.0,27.3,30.25,South,180,9.1,20.1,48,0.00,,,0.00,WUHU21636XXSP,2013-03-26 20:40:00,
2013-03-26 15:50:00,46.0,27.9,30.24,SSW,202,10.5,23.9,48,0.00,,,0.00,WUHU21636XXSP,2013-03-26 20:50:00,
2013-03-26 16:00:00,47.1,29.3,30.24,SSE,157,7.6,19.2,50,0.00,,,0.00,WUHU21636XXSP,2013-03-26 21:00:00,
2013-03-26 16:10:00,47.8,29.5,30.24,SSW,202,8.5,17.8,49,0.00,,,0.00,WUHU21636XXSP,2013-03-26 21:10:00,
2013-03-26 16:20:00,48.4,29.8,30.23,SSW,202,6.0,17.2,49,0.00,,,0.00,WUHU21636XXSP,2013-03-26 21:20:00,
2013-03-26 16:30:00,49.1,28.9,30.22,SSW,202,10.5,16.1,46,0.00,,,0.00,WUHU21636XXSP,2013-03-26 21:30:00,
2013-03-26 16:40:00,49.6,27.9,30.22,SW,225,14.7,21.6,43,0.00,,,0.00,WUHU21636XXSP,2013-03-26 21:40:00,
2013-03-26 16:50:00,49.5,28.2,30.21,South,180,10.0,20.3,44,0.00,,,0.00,WUHU21636XXSP,2013-03-26 21:50:00,
2013-03-26 17:00:00,50.2,28.9,30.21,South,180,8.2,18.7,44,0.00,,,0.00,WUHU21636XXSP,2013-03-26 22:00:00,
2013-03-26 17:10:00,50.4,28.6,30.21,SSW,202,12.0,20.5,43,0.00,,,0.00,WUHU21636XXSP,2013-03-26 22:10:00,
2013-03-26 17:20:00,50.5,28.8,30.20,South,180,13.1,19.6,43,0.00,,,0.00,WUHU21636XXSP,2013-03-26 22:20:00,
2013-03-26 17:30:00,50.9,28.9,30.19,South,180,8.5,17.2,43,0.00,,,0.00,WUHU21636XXSP,2013-03-26 22:30:00,
2013-03-26 17:40:00,51.4,30.0,30.19,South,180,6.7,17.8,44,0.00,,,0.00,WUHU21636XXSP,2013-03-26 22:40:00,
2013-03-26 17:50:00,51.4,28.9,30.18,SSW,202,8.5,19.6,42,0.00,,,0.00,WUHU21636XXSP,2013-03-26 22:50:00,
2013-03-26 18:00:00,51.4,29.5,30.18,SSW,202,13.1,18.1,43,0.00,,,0.00,WUHU21636XXSP,2013-03-26 23:00:00,
2013-03-26 18:10:00,51.1,29.7,30.18,SSW,202,4.6,17.0,44,0.00,,,0.00,WUHU21636XXSP,2013-03-26 23:10:00,
2013-03-26 18:20:00,51.1,29.1,30.18,SSE,157,6.9,12.9,43,0.00,,,0.00,WUHU21636XXSP,2013-03-26 23:20:00,
2013-03-26 18:30:00,50.9,29.5,30.18,South,180,3.1,12.0,44,0.00,,,0.00,WUHU21636XXSP,2013-03-26 23:30:00,
2013-03-26 18:40:00,51.1,28.6,30.18,South,180,3.8,9.6,42,0.00,,,0.00,WUHU21636XXSP,2013-03-26 23:40:00,
2013-03-26 18:50:00,50.9,28.4,30.18,SSW,202,4.4,6.9,42,0.00,,,0.00,WUHU21636XXSP,2013-03-26 23:50:00,
2013-03-26 19:00:00,50.5,28.8,30.18,SSW,202,4.0,5.3,43,0.00,,,0.00,WUHU21636XXSP,2013-03-27 00:00:00,
2013-03-26 19:10:00,49.1,27.9,30.18,South,180,0.0,5.5,44,0.00,,,0.00,WUHU21636XXSP,2013-03-27 00:10:00,
2013-03-26 19:20:00,48.4,28.2,30.18,South,180,0.0,0.0,46,0.00,,,0.00,WUHU21636XXSP,2013-03-27 00:20:00,
2013-03-26 19:30:00,47.3,28.9,30.18,South,180,0.0,0.0,49,0.00,,,0.00,WUHU21636XXSP,2013-03-27 00:30:00,
2013-03-26 19:40:00,46.4,29.1,30.18,South,180,0.0,0.0,51,0.00,,,0.00,WUHU21636XXSP,2013-03-27 00:40:00,
2013-03-26 19:50:00,45.9,29.1,30.18,South,180,0.0,0.0,52,0.00,,,0.00,WUHU21636XXSP,2013-03-27 00:50:00,
2013-03-26 20:00:00,45.1,28.9,30.18,South,180,0.0,0.0,53,0.00,,,0.00,WUHU21636XXSP,2013-03-27 01:00:00,
2013-03-26 20:10:00,44.2,28.9,30.19,ESE,112,9.3,12.7,55,0.00,,,0.00,WUHU21636XXSP,2013-03-27 01:10:00,
2013-03-26 20:20:00,43.3,28.9,30.19,ESE,112,2.0,14.7,57,0.00,,,0.00,WUHU21636XXSP,2013-03-27 01:20:00,
2013-03-26 20:30:00,42.4,28.9,30.19,ENE,67,5.5,10.5,59,0.00,,,0.00,WUHU21636XXSP,2013-03-27 01:30:00,
2013-03-26 20:40:00,41.7,28.8,30.20,East,90,5.8,11.8,60,0.00,,,0.00,WUHU21636XXSP,2013-03-27 01:40:00,
2013-03-26 20:50:00,41.2,28.8,30.20,ENE,67,10.2,18.5,61,0.00,,,0.00,WUHU21636XXSP,2013-03-27 01:50:00,
2013-03-26 21:00:00,40.6,28.6,30.20,ESE,112,6.7,15.8,62,0.00,,,0.00,WUHU21636XXSP,2013-03-27 02:00:00,
2013-03-26 21:10:00,40.3,28.6,30.20,ESE,112,5.5,14.5,63,0.00,,,0.00,WUHU21636XXSP,2013-03-27 02:10:00,
2013-03-26 21:20:00,39.9,28.6,30.20,ESE,112,3.5,12.5,64,0.00,,,0.00,WUHU21636XXSP,2013-03-27 02:20:00,
2013-03-26 21:30:00,39.7,28.4,30.21,ENE,67,3.5,16.7,64,0.00,,,0.00,WUHU21636XXSP,2013-03-27 02:30:00,
2013-03-26 21:41:00,39.4,28.4,30.21,ENE,67,4.6,10.7,65,0.00,,,0.00,WUHU21636XXSP,2013-03-27 02:41:00,
2013-03-26 21:51:00,39.0,28.0,30.20,ESE,112,8.9,13.1,65,0.00,,,0.00,WUHU21636XXSP,2013-03-27 02:51:00,
2013-03-26 22:01:00,38.7,28.0,30.20,ESE,112,6.2,13.6,66,0.00,,,0.00,WUHU21636XXSP,2013-03-27 03:01:00,
2013-03-26 22:11:00,38.7,28.0,30.20,ESE,112,9.3,17.6,66,0.00,,,0.00,WUHU21636XXSP,2013-03-27 03:11:00,
2013-03-26 22:21:00,38.5,28.0,30.21,ESE,112,7.6,20.8,66,0.00,,,0.00,WUHU21636XXSP,2013-03-27 03:21:00,
2013-03-26 22:31:00,38.1,28.0,30.21,East,90,7.8,16.5,67,0.00,,,0.00,WUHU21636XXSP,2013-03-27 03:31:00,
2013-03-26 22:41:00,37.8,28.0,30.21,ESE,112,6.9,14.0,68,0.00,,,0.00,WUHU21636XXSP,2013-03-27 03:41:00,
2013-03-26 22:51:00,37.6,28.2,30.21,SE,135,7.1,13.4,69,0.00,,,0.00,WUHU21636XXSP,2013-03-27 03:51:00,
2013-03-26 23:01:00,37.2,28.4,30.21,SE,135,4.4,12.0,70,0.00,,,0.00,WUHU21636XXSP,2013-03-27 04:01:00,
2013-03-26 23:11:00,37.0,28.2,30.22,SE,135,0.0,11.6,70,0.00,,,0.00,WUHU21636XXSP,2013-03-27 04:11:00,
2013-03-26 23:21:00,36.9,28.0,30.21,ENE,67,3.8,3.8,70,0.00,,,0.00,WUHU21636XXSP,2013-03-27 04:21:00,
2013-03-26 23:31:00,36.7,27.9,30.21,SE,135,2.2,13.1,70,0.00,,,0.00,WUHU21636XXSP,2013-03-27 04:31:00,
2013-03-26 23:41:00,36.5,27.7,30.22,ESE,112,0.0,11.4,70,0.00,,,0.00,WUHU21636XXSP,2013-03-27 04:41:00,
2013-03-26 23:51:00,36.3,27.5,30.22,ESE,112,0.0,7.8,70,0.00,,,0.00,WUHU21636XXSP,2013-03-27 04:51:00,